Time;durP1;ratioP1;P1;durP2;ratioP2;P2;SDS_P1;SDS_P2;PMS_P1;PMS_P2;Temp;Humidity;BMP_temperature;BMP_pressure;BME280_temperature;BME280_humidity;BME280_pressure;Samples;Min_cycle;Max_cycle;Signal;HPM_P1;HPM_P2
2022/08/20 00:00:36;;;;;;;;;;;18.90;99.90;;;;;;4971351;28;19925;-87
2022/08/20 00:03:04;;;;;;;;;;;18.90;99.90;;;;;;4970548;28;19939;-86
2022/08/20 00:05:42;;;;;;;;;;;18.90;99.90;;;;;;4958356;28;19984;-85
2022/08/20 00:08:14;;;;;;;;;;;19.00;99.90;;;;;;4976002;28;19937;-89
2022/08/20 00:10:41;;;;;;;;;;;18.90;99.90;;;;;;4971367;28;19926;-91
2022/08/20 00:13:09;;;;;;;;;;;18.90;99.90;;;;;;4976121;28;19933;-90
2022/08/20 00:15:37;;;;;;;;;;;18.90;99.90;;;;;;4975414;28;19937;-89
2022/08/20 00:18:04;;;;;;;;;;;18.90;99.90;;;;;;4950711;28;20011;-89
2022/08/20 00:20:48;;;;;;;;;;;18.90;99.90;;;;;;4960719;28;19941;-91
2022/08/20 00:23:15;;;;;;;;;;;19.10;99.90;;;;;;4960431;28;19941;-85
2022/08/20 00:26:01;;;;;;;;;;;18.90;99.90;;;;;;4956041;28;19922;-90
2022/08/20 00:28:26;;;;;;;;;;;18.90;99.90;;;;;;4958607;28;19926;-86
2022/08/20 00:30:52;;;;;;;;;;;18.90;99.90;;;;;;4960010;28;19929;-86
2022/08/20 00:33:20;;;;;;;;;;;18.90;99.90;;;;;;4964042;28;19981;-86
2022/08/20 00:35:48;;;;;;;;;;;18.90;99.90;;;;;;4959154;28;20397;-85
2022/08/20 00:38:14;;;;;;;;;;;18.80;99.90;;;;;;4958782;28;19926;-86
2022/08/20 00:40:56;;;;;;;;;;;18.80;99.90;;;;;;4955659;28;19930;-88
2022/08/20 00:43:41;;;;;;;;;;;18.80;99.90;;;;;;4969394;28;20069;-86
2022/08/20 00:46:11;;;;;;;;;;;18.80;99.90;;;;;;4973681;28;19926;-85
2022/08/20 00:48:40;;;;;;;;;;;18.70;99.90;;;;;;4959555;28;20036;-86
2022/08/20 00:51:05;;;;;;;;;;;18.70;99.90;;;;;;4958875;28;20169;-88
2022/08/20 00:53:33;;;;;;;;;;;18.70;99.90;;;;;;4974150;28;19976;-87
2022/08/20 00:56:01;;;;;;;;;;;18.70;99.90;;;;;;4957893;28;20016;-87
2022/08/20 00:58:29;;;;;;;;;;;18.70;99.90;;;;;;4951997;28;20421;-87
2022/08/20 01:00:55;;;;;;;;;;;18.70;99.90;;;;;;4974877;28;20005;-87
2022/08/20 01:03:21;;;;;;;;;;;18.60;99.90;;;;;;4936934;28;20016;-86
2022/08/20 01:05:49;;;;;;;;;;;18.60;99.90;;;;;;4957595;28;20004;-86
2022/08/20 01:08:16;;;;;;;;;;;18.60;99.90;;;;;;4955884;28;19998;-85
2022/08/20 01:10:43;;;;;;;;;;;18.60;99.90;;;;;;4958309;28;19969;-86
2022/08/20 01:13:17;;;;;;;;;;;18.50;99.90;;;;;;4966289;28;19980;-87
2022/08/20 01:15:44;;;;;;;;;;;18.50;99.90;;;;;;4954998;28;19965;-86
2022/08/20 01:18:12;;;;;;;;;;;18.50;99.90;;;;;;4956902;28;19934;-85
2022/08/20 01:20:50;;;;;;;;;;;18.40;99.90;;;;;;4973290;28;19930;-85
2022/08/20 01:23:31;;;;;;;;;;;18.40;99.90;;;;;;4973244;28;20027;-85
2022/08/20 01:26:01;;;;;;;;;;;18.40;99.90;;;;;;4971322;28;19926;-85
2022/08/20 01:28:30;;;;;;;;;;;18.40;99.90;;;;;;4972037;28;19926;-85
2022/08/20 01:30:57;;;;;;;;;;;18.40;99.90;;;;;;4956722;28;19933;-86
2022/08/20 01:33:23;;;;;;;;;;;18.40;99.90;;;;;;4969394;28;19925;-87
2022/08/20 01:35:55;;;;;;;;;;;18.30;99.90;;;;;;4974799;28;19930;-87
2022/08/20 01:38:23;;;;;;;;;;;18.30;99.90;;;;;;4971817;28;19930;-88
2022/08/20 01:41:07;;;;;;;;;;;18.30;99.90;;;;;;4954545;28;20463;-86
2022/08/20 01:43:40;;;;;;;;;;;18.30;99.90;;;;;;4972035;28;20501;-86
2022/08/20 01:46:09;;;;;;;;;;;18.30;99.90;;;;;;4972669;28;19944;-86
2022/08/20 01:48:35;;;;;;;;;;;18.20;99.90;;;;;;4968688;28;19949;-85
2022/08/20 01:51:13;;;;;;;;;;;18.20;99.90;;;;;;4956071;28;19930;-84
2022/08/20 01:53:44;;;;;;;;;;;18.20;99.90;;;;;;4967183;28;19930;-85
2022/08/20 01:56:13;;;;;;;;;;;18.20;99.90;;;;;;4967438;28;19933;-85
2022/08/20 01:58:41;;;;;;;;;;;18.10;99.90;;;;;;4956224;28;19940;-86
2022/08/20 02:01:16;;;;;;;;;;;18.10;99.90;;;;;;4955318;28;19926;-87
2022/08/20 02:03:43;;;;;;;;;;;18.00;99.90;;;;;;4954762;28;19926;-85
2022/08/20 02:08:56;;;;;;;;;;;17.90;99.90;;;;;;5128788;23;20355;-86
2022/08/20 02:15:07;;;;;;;;;;;17.90;99.90;;;;;;4974691;28;19927;-88
2022/08/20 02:17:50;;;;;;;;;;;17.90;99.90;;;;;;4965041;28;19926;-86
2022/08/20 02:20:23;;;;;;;;;;;17.90;99.90;;;;;;4949677;28;19952;-85
2022/08/20 02:26:19;;;;;;;;;;;;;;;;;;;;;
2022/08/20 02:29:07;;;;;;;;;;;17.80;99.90;;;;;;4935540;28;19936;-85
2022/08/20 02:31:58;;;;;;;;;;;17.70;99.90;;;;;;4964452;28;19926;-86
2022/08/20 02:34:45;;;;;;;;;;;17.70;99.90;;;;;;4950679;28;19934;-86
2022/08/20 02:37:15;;;;;;;;;;;17.70;99.90;;;;;;4961044;28;19973;-88
2022/08/20 02:39:47;;;;;;;;;;;17.60;99.90;;;;;;4955016;28;19930;-87
2022/08/20 02:42:32;;;;;;;;;;;18.20;99.90;;;;;;4937163;28;20388;-86
2022/08/20 02:48:40;;;;;;;;;;;17.20;99.90;;;;;;4976752;28;20053;-89
2022/08/20 02:51:22;;;;;;;;;;;17.50;99.90;;;;;;4945358;28;19933;-87
2022/08/20 02:54:24;;;;;;;;;;;17.50;99.90;;;;;;4954494;28;20157;-87
2022/08/20 02:57:37;;;;;;;;;;;17.50;99.90;;;;;;4969717;28;20033;-85
2022/08/20 03:00:47;;;;;;;;;;;17.40;99.90;;;;;;4973625;28;19930;-90
2022/08/20 03:03:55;;;;;;;;;;;17.40;99.90;;;;;;4971870;28;20389;-88
2022/08/20 03:07:12;;;;;;;;;;;17.30;99.90;;;;;;4950925;28;19926;-88
2022/08/20 03:09:49;;;;;;;;;;;17.40;99.90;;;;;;4978723;28;20023;-87
2022/08/20 03:12:20;;;;;;;;;;;17.20;99.90;;;;;;4962655;28;19936;-88
2022/08/20 06:50:37;;;;;;;;;;;18.10;99.90;;;;;;751757;23;20808;-83
2022/08/20 06:53:05;;;;;;;;;;;18.30;99.90;;;;;;4951253;28;20455;-91
2022/08/20 06:55:31;;;;;;;;;;;18.50;99.90;;;;;;4955589;28;19949;-94
2022/08/20 06:58:02;;;;;;;;;;;18.60;99.90;;;;;;4939828;28;20288;-86
2022/08/20 07:00:32;;;;;;;;;;;18.60;99.90;;;;;;4947035;28;19981;-91
2022/08/20 07:02:59;;;;;;;;;;;18.70;99.90;;;;;;4939586;28;19930;-93
2022/08/20 07:05:29;;;;;;;;;;;18.80;99.90;;;;;;4939600;28;20460;-88
2022/08/20 07:07:59;;;;;;;;;;;19.00;99.90;;;;;;4951382;28;19937;-84
2022/08/20 07:10:29;;;;;;;;;;;19.10;99.90;;;;;;4942003;28;19934;-90
2022/08/20 07:12:55;;;;;;;;;;;19.40;99.90;;;;;;4950881;28;19930;-89
2022/08/20 07:15:22;;;;;;;;;;;19.70;99.90;;;;;;4945568;28;20021;-86
2022/08/20 07:17:55;;;;;;;;;;;20.30;99.90;;;;;;4951462;28;19930;-89
2022/08/20 07:20:21;;;;;;;;;;;21.00;99.90;;;;;;4956385;28;19934;-88
2022/08/20 07:23:12;;;;;;;;;;;21.40;99.90;;;;;;4921769;28;19926;-91
2022/08/20 07:26:00;;;;;;;;;;;22.10;99.90;;;;;;4933779;28;19930;-91
2022/08/20 07:29:00;;;;;;;;;;;23.00;99.90;;;;;;4933456;28;20451;-89
2022/08/20 07:34:37;;;;;;;;;;;24.50;99.90;;;;;;4939970;28;19930;-89
2022/08/20 07:37:04;;;;;;;;;;;25.00;99.90;;;;;;4949544;28;19934;-92
2022/08/20 07:42:08;;;;;;;;;;;25.70;99.90;;;;;;5001023;23;19933;-89
2022/08/20 07:45:05;;;;;;;;;;;26.00;99.90;;;;;;4917635;29;20394;-92
2022/08/20 07:47:34;;;;;;;;;;;26.00;99.90;;;;;;4932782;29;19945;-85
2022/08/20 07:50:00;;;;;;;;;;;26.10;99.40;;;;;;4917332;29;19948;-91
2022/08/20 07:52:45;;;;;;;;;;;25.40;98.60;;;;;;4933364;29;20538;-89
2022/08/20 07:55:19;;;;;;;;;;;24.60;99.90;;;;;;4935891;29;19927;-84
2022/08/20 07:57:46;;;;;;;;;;;23.50;99.90;;;;;;4918107;29;19937;-91
2022/08/20 08:00:13;;;;;;;;;;;22.70;99.90;;;;;;4932526;29;19938;-87
2022/08/20 08:02:58;;;;;;;;;;;22.30;99.90;;;;;;4931841;29;20061;-85
2022/08/20 08:05:25;;;;;;;;;;;22.40;99.90;;;;;;4931821;29;19929;-89
2022/08/20 08:07:51;;;;;;;;;;;23.10;99.90;;;;;;4932912;29;19941;-86
2022/08/20 08:10:21;;;;;;;;;;;23.60;99.90;;;;;;4944810;28;19962;-85
2022/08/20 08:12:52;;;;;;;;;;;24.10;99.90;;;;;;5033366;23;19976;-90
2022/08/20 08:15:22;;;;;;;;;;;24.50;99.90;;;;;;4970081;28;20472;-84
2022/08/20 08:17:57;;;;;;;;;;;25.30;99.90;;;;;;4967883;28;19929;-86
2022/08/20 08:20:23;;;;;;;;;;;25.80;99.90;;;;;;4949951;28;20264;-86
2022/08/20 08:29:20;;;;;;;;;;;26.70;95.60;;;;;;4991427;28;20004;-91
2022/08/20 08:33:26;;;;;;;;;;;26.70;94.40;;;;;;4989857;23;19949;-91
2022/08/20 08:35:06;;;;;;;;;;;26.70;93.40;;;;;;4969170;28;20292;-83
2022/08/20 08:37:37;;;;;;;;;;;;;;;;;;4935080;28;20014;-83
2022/08/20 08:40:04;;;;;;;;;;;26.80;95.00;;;;;;4952694;28;19934;-86
2022/08/20 08:42:44;;;;;;;;;;;27.00;93.60;;;;;;4974766;28;19937;-84
2022/08/20 08:47:46;;;;;;;;;;;26.90;92.60;;;;;;5160618;23;19941;-85
2022/08/20 08:50:46;;;;;;;;;;;26.80;91.40;;;;;;4974804;28;19926;-84
2022/08/20 08:53:30;;;;;;;;;;;26.80;91.60;;;;;;4976522;28;20513;-85
2022/08/20 08:56:20;;;;;;;;;;;26.80;92.80;;;;;;4965246;28;19930;-91
2022/08/20 08:58:47;;;;;;;;;;;26.70;93.50;;;;;;4953879;28;19940;-86
2022/08/20 09:01:14;;;;;;;;;;;26.20;93.50;;;;;;4964107;28;20376;-88
2022/08/20 09:03:47;;;;;;;;;;;26.10;94.20;;;;;;4966722;28;19936;-84
2022/08/20 09:06:31;;;;;;;;;;;25.70;94.10;;;;;;4981450;28;19974;-85
2022/08/20 09:09:04;;;;;;;;;;;25.10;94.80;;;;;;4951766;28;19938;-84
2022/08/20 09:11:43;;;;;;;;;;;24.00;96.40;;;;;;4937941;28;19951;-88
2022/08/20 09:14:09;;;;;;;;;;;24.70;96.90;;;;;;4963455;28;19926;-85
2022/08/20 09:16:34;;;;;;;;;;;24.60;98.20;;;;;;4951274;28;20734;-86
2022/08/20 09:19:00;;;;;;;;;;;24.60;99.20;;;;;;4966719;28;19930;-85
2022/08/20 09:21:44;;;;;;;;;;;24.70;98.20;;;;;;4936751;28;19961;-86
2022/08/20 09:24:10;;;;;;;;;;;24.70;98.20;;;;;;4951937;28;19933;-86
2022/08/20 09:26:44;;;;;;;;;;;24.40;98.20;;;;;;4947309;28;19930;-88
2022/08/20 09:29:10;;;;;;;;;;;23.90;98.50;;;;;;4965681;28;20537;-84
2022/08/20 09:31:39;;;;;;;;;;;23.50;99.10;;;;;;4934562;28;19958;-83
2022/08/20 09:34:05;;;;;;;;;;;23.30;99.90;;;;;;4932292;28;19930;-91
2022/08/20 09:36:31;;;;;;;;;;;23.40;99.10;;;;;;4970565;28;20537;-87
2022/08/20 09:38:57;;;;;;;;;;;23.50;98.70;;;;;;4949968;28;20453;-86
2022/08/20 09:41:23;;;;;;;;;;;23.80;99.90;;;;;;5021592;23;20029;-86
2022/08/20 09:43:50;;;;;;;;;;;24.10;99.80;;;;;;4986755;28;19997;-88
2022/08/20 09:46:16;;;;;;;;;;;24.30;99.60;;;;;;4984973;28;19929;-85
2022/08/20 09:48:41;;;;;;;;;;;24.00;97.30;;;;;;4970703;28;19988;-83
2022/08/20 09:51:07;;;;;;;;;;;24.00;98.70;;;;;;4964337;28;19930;-88
2022/08/20 09:53:33;;;;;;;;;;;24.20;99.90;;;;;;4953034;28;20024;-87
2022/08/20 09:59:12;;;;;;;;;;;24.50;99.40;;;;;;4962679;28;19937;-88
2022/08/20 10:01:38;;;;;;;;;;;24.40;99.90;;;;;;4964829;28;19925;-84
2022/08/20 10:04:06;;;;;;;;;;;24.60;97.90;;;;;;4977017;28;19945;-83
2022/08/20 10:06:58;;;;;;;;;;;24.80;97.50;;;;;;4959259;28;19956;-83
2022/08/20 10:14:32;;;;;;;;;;;24.60;96.10;;;;;;5012419;28;19929;-83
2022/08/20 10:16:58;;;;;;;;;;;24.70;94.50;;;;;;4953553;28;19930;-83
2022/08/20 10:19:36;;;;;;;;;;;24.90;95.90;;;;;;4977974;28;19925;-83
2022/08/20 10:22:02;;;;;;;;;;;25.10;95.50;;;;;;4991293;28;20391;-85
2022/08/20 10:24:28;;;;;;;;;;;25.00;94.90;;;;;;4960349;28;19949;-85
2022/08/20 10:26:58;;;;;;;;;;;24.90;94.80;;;;;;4981008;28;19929;-82
2022/08/20 10:29:43;;;;;;;;;;;24.90;94.30;;;;;;5024915;28;19925;-87
2022/08/20 10:32:11;;;;;;;;;;;25.00;94.80;;;;;;4973836;28;19933;-89
2022/08/20 10:34:40;;;;;;;;;;;24.70;98.00;;;;;;5017807;28;19979;-93
2022/08/20 10:37:06;;;;;;;;;;;24.80;96.70;;;;;;4979880;28;19932;-90
2022/08/20 10:39:32;;;;;;;;;;;24.70;96.00;;;;;;4979298;28;19929;-85
2022/08/20 10:42:24;;;;;;;;;;;24.40;97.80;;;;;;4986445;28;20418;-87
2022/08/20 10:44:52;;;;;;;;;;;24.40;94.40;;;;;;4985551;28;19934;-88
2022/08/20 10:47:26;;;;;;;;;;;24.30;93.70;;;;;;4997486;28;19926;-84
2022/08/20 10:49:53;;;;;;;;;;;24.20;95.10;;;;;;4993199;28;20485;-85
2022/08/20 10:52:19;;;;;;;;;;;23.90;94.20;;;;;;4963561;28;19980;-85
2022/08/20 10:54:45;;;;;;;;;;;23.60;93.90;;;;;;4992964;28;19955;-83
2022/08/20 10:57:16;;;;;;;;;;;23.30;96.90;;;;;;5000759;28;19932;-83
2022/08/20 10:59:44;;;;;;;;;;;23.00;99.40;;;;;;4978605;28;19937;-89
2022/08/20 11:02:10;;;;;;;;;;;22.80;99.10;;;;;;4988158;28;19925;-82
2022/08/20 11:04:41;;;;;;;;;;;22.60;99.60;;;;;;4991287;28;19960;-87
2022/08/20 11:07:15;;;;;;;;;;;22.40;99.90;;;;;;4974085;28;19935;-86
2022/08/20 11:09:42;;;;;;;;;;;22.40;99.90;;;;;;4980942;28;19988;-84
2022/08/20 11:12:08;;;;;;;;;;;22.50;99.90;;;;;;4992212;28;19965;-85
2022/08/20 11:14:34;;;;;;;;;;;22.80;99.90;;;;;;4987973;28;19930;-85
2022/08/20 11:17:00;;;;;;;;;;;23.10;99.90;;;;;;4980752;28;20291;-85
2022/08/20 11:19:26;;;;;;;;;;;23.50;99.30;;;;;;4991230;28;19926;-84
2022/08/20 11:21:52;;;;;;;;;;;23.60;98.60;;;;;;4989205;28;20300;-82
2022/08/20 11:24:19;;;;;;;;;;;23.60;96.90;;;;;;4945484;28;19930;-84
2022/08/20 11:26:45;;;;;;;;;;;23.40;96.50;;;;;;4992788;28;19964;-85
2022/08/20 11:29:11;;;;;;;;;;;23.40;97.40;;;;;;4969813;28;19934;-83
2022/08/20 11:31:37;;;;;;;;;;;23.60;96.50;;;;;;4973107;28;19933;-83
2022/08/20 11:34:03;;;;;;;;;;;23.90;97.80;;;;;;4979929;28;20387;-84
2022/08/20 11:36:30;;;;;;;;;;;24.20;96.80;;;;;;4986987;28;19933;-85
2022/08/20 11:38:56;;;;;;;;;;;24.20;99.90;;;;;;4992277;28;20388;-82
2022/08/20 11:41:21;;;;;;;;;;;23.90;94.80;;;;;;4984374;28;19929;-82
2022/08/20 11:43:47;;;;;;;;;;;23.70;96.10;;;;;;4965063;28;19930;-81
2022/08/20 11:46:13;;;;;;;;;;;23.60;96.40;;;;;;4975555;28;19932;-84
2022/08/20 11:48:39;;;;;;;;;;;23.50;95.80;;;;;;4990502;28;19926;-83
2022/08/20 11:51:05;;;;;;;;;;;23.30;95.50;;;;;;4973690;28;19933;-83
2022/08/20 11:53:31;;;;;;;;;;;23.40;95.30;;;;;;4977428;28;20009;-82
2022/08/20 11:55:56;;;;;;;;;;;23.20;95.00;;;;;;5005931;28;19976;-85
2022/08/20 11:58:22;;;;;;;;;;;23.30;99.90;;;;;;4987869;28;20311;-83
2022/08/20 12:00:48;;;;;;;;;;;23.30;96.60;;;;;;4994897;28;19964;-84
2022/08/20 12:03:14;;;;;;;;;;;23.20;95.90;;;;;;4966374;28;20051;-83
2022/08/20 12:05:41;;;;;;;;;;;23.30;95.60;;;;;;5001685;28;19922;-85
2022/08/20 12:08:08;;;;;;;;;;;23.10;98.80;;;;;;4979473;28;20135;-85
2022/08/20 12:10:35;;;;;;;;;;;22.90;96.40;;;;;;5003707;28;20484;-84
2022/08/20 12:13:01;;;;;;;;;;;22.70;97.30;;;;;;4978081;28;19929;-83
2022/08/20 12:15:26;;;;;;;;;;;22.60;98.30;;;;;;4983204;28;19926;-83
2022/08/20 12:17:53;;;;;;;;;;;22.60;98.60;;;;;;4982873;28;19925;-84
2022/08/20 12:20:18;;;;;;;;;;;22.60;98.70;;;;;;4999478;28;19932;-81
2022/08/20 12:22:45;;;;;;;;;;;22.60;98.00;;;;;;4978144;28;20323;-84
2022/08/20 12:25:11;;;;;;;;;;;22.50;97.10;;;;;;4994860;28;19928;-82
2022/08/20 12:27:37;;;;;;;;;;;22.40;96.80;;;;;;4957151;28;19949;-85
2022/08/20 12:30:05;;;;;;;;;;;22.30;97.30;;;;;;4972815;28;19937;-83
2022/08/20 12:32:31;;;;;;;;;;;22.20;97.90;;;;;;4985107;28;20117;-83
2022/08/20 12:34:57;;;;;;;;;;;22.20;97.10;;;;;;4988742;28;19926;-82
2022/08/20 12:37:25;;;;;;;;;;;22.10;97.20;;;;;;4988887;28;19932;-83
2022/08/20 12:39:52;;;;;;;;;;;22.10;98.80;;;;;;4997155;28;19926;-83
2022/08/20 12:42:20;;;;;;;;;;;22.30;98.50;;;;;;4988651;28;20434;-82
2022/08/20 12:44:45;;;;;;;;;;;22.30;96.80;;;;;;4999455;28;19937;-81
2022/08/20 12:47:11;;;;;;;;;;;22.60;97.80;;;;;;4998215;28;20272;-81
2022/08/20 12:49:38;;;;;;;;;;;22.80;98.00;;;;;;4995485;28;20012;-84
2022/08/20 12:52:04;;;;;;;;;;;22.90;99.90;;;;;;4992130;28;19936;-82
2022/08/20 12:54:30;;;;;;;;;;;23.10;96.90;;;;;;4973752;28;19926;-83
2022/08/20 12:56:56;;;;;;;;;;;23.10;96.50;;;;;;4982155;28;19930;-84
2022/08/20 12:59:23;;;;;;;;;;;22.90;95.60;;;;;;4989740;28;20000;-87
2022/08/20 13:01:49;;;;;;;;;;;22.70;98.40;;;;;;4975499;28;20258;-84
2022/08/20 13:04:15;;;;;;;;;;;22.60;98.50;;;;;;4988350;28;19972;-87
2022/08/20 13:06:42;;;;;;;;;;;22.40;97.00;;;;;;4992975;28;19968;-87
2022/08/20 13:09:08;;;;;;;;;;;22.30;96.40;;;;;;4995316;28;19926;-85
2022/08/20 13:11:36;;;;;;;;;;;22.30;96.10;;;;;;4958161;28;20021;-85
2022/08/20 13:14:08;;;;;;;;;;;22.20;97.50;;;;;;4974679;28;20463;-86
2022/08/20 13:16:33;;;;;;;;;;;22.20;98.40;;;;;;4958392;28;19930;-81
2022/08/20 13:18:59;;;;;;;;;;;22.10;99.30;;;;;;4990235;28;19933;-83
2022/08/20 13:21:26;;;;;;;;;;;21.90;99.90;;;;;;4996214;28;20379;-87
2022/08/20 13:23:52;;;;;;;;;;;22.10;99.90;;;;;;4994366;28;19980;-89
2022/08/20 13:26:18;;;;;;;;;;;22.00;99.00;;;;;;4993426;28;19926;-86
2022/08/20 13:28:43;;;;;;;;;;;22.00;98.60;;;;;;4974995;28;20517;-82
2022/08/20 13:31:09;;;;;;;;;;;22.00;99.10;;;;;;4996404;23;19930;-84
2022/08/20 13:33:35;;;;;;;;;;;22.00;99.30;;;;;;4946416;28;19927;-85
2022/08/20 13:36:01;;;;;;;;;;;22.00;98.80;;;;;;4931901;28;19962;-88
2022/08/20 13:38:27;;;;;;;;;;;22.00;98.50;;;;;;4951021;28;20369;-83
2022/08/20 13:40:52;;;;;;;;;;;22.00;98.60;;;;;;4945923;28;19941;-83
2022/08/20 13:43:18;;;;;;;;;;;22.00;99.20;;;;;;4932423;28;20017;-83
2022/08/20 13:45:44;;;;;;;;;;;22.00;99.50;;;;;;4932234;28;19927;-83
2022/08/20 13:48:10;;;;;;;;;;;22.00;99.60;;;;;;4912930;29;19938;-83
2022/08/20 13:50:36;;;;;;;;;;;22.00;99.50;;;;;;4949083;28;20296;-87
2022/08/20 13:53:03;;;;;;;;;;;22.00;98.00;;;;;;4926408;28;19993;-81
2022/08/20 13:55:29;;;;;;;;;;;21.90;98.20;;;;;;4931123;29;20061;-84
2022/08/20 13:57:58;;;;;;;;;;;22.00;98.10;;;;;;4936062;29;19926;-85
2022/08/20 14:00:27;;;;;;;;;;;22.10;98.30;;;;;;4915091;29;20051;-82
2022/08/20 14:02:53;;;;;;;;;;;22.10;96.80;;;;;;4913049;29;20029;-84
2022/08/20 14:05:19;;;;;;;;;;;22.10;96.70;;;;;;4952388;28;20209;-82
2022/08/20 14:07:46;;;;;;;;;;;22.10;97.10;;;;;;4918654;29;19934;-84
2022/08/20 14:10:14;;;;;;;;;;;22.00;97.70;;;;;;4921359;29;19970;-86
2022/08/20 14:12:40;;;;;;;;;;;22.10;97.90;;;;;;4937273;29;19958;-86
2022/08/20 14:15:07;;;;;;;;;;;22.10;99.90;;;;;;4933785;29;20174;-83
2022/08/20 14:17:38;;;;;;;;;;;22.30;99.20;;;;;;4931568;29;19930;-81
2022/08/20 14:20:06;;;;;;;;;;;22.30;99.50;;;;;;4917564;29;20040;-84
2022/08/20 14:22:33;;;;;;;;;;;22.40;99.60;;;;;;4932291;29;19934;-83
2022/08/20 14:25:02;;;;;;;;;;;22.40;98.60;;;;;;4932686;28;20384;-85
2022/08/20 14:27:28;;;;;;;;;;;22.30;98.40;;;;;;4933757;29;19937;-84
2022/08/20 14:29:54;;;;;;;;;;;22.30;98.50;;;;;;4916287;28;20047;-84
2022/08/20 14:32:20;;;;;;;;;;;22.30;98.20;;;;;;4928738;29;19942;-84
2022/08/20 14:34:47;;;;;;;;;;;22.20;96.60;;;;;;4915183;28;19941;-85
2022/08/20 14:37:15;;;;;;;;;;;22.20;97.80;;;;;;4934890;29;20310;-86
2022/08/20 14:39:50;;;;;;;;;;;22.20;98.40;;;;;;4922982;28;19935;-85
2022/08/20 14:42:35;;;;;;;;;;;22.20;96.90;;;;;;4929708;29;19993;-87
2022/08/20 14:45:01;;;;;;;;;;;22.20;97.40;;;;;;4932842;29;20333;-86
2022/08/20 14:47:33;;;;;;;;;;;22.20;97.60;;;;;;4938061;28;19937;-82
2022/08/20 14:50:02;;;;;;;;;;;22.20;97.10;;;;;;4948885;29;19926;-86
2022/08/20 14:55:21;;;;;;;;;;;22.20;96.80;;;;;;4954405;28;20344;-82
2022/08/20 14:57:47;;;;;;;;;;;22.20;96.00;;;;;;4950809;28;19930;-83
2022/08/20 15:00:17;;;;;;;;;;;22.20;98.20;;;;;;4950226;28;19933;-82
2022/08/20 15:02:44;;;;;;;;;;;22.30;97.50;;;;;;4932052;28;19941;-82
2022/08/20 15:05:11;;;;;;;;;;;22.30;97.70;;;;;;4950885;28;20017;-83
2022/08/20 15:07:39;;;;;;;;;;;22.30;97.40;;;;;;4941804;28;20323;-82
2022/08/20 15:10:09;;;;;;;;;;;22.20;97.10;;;;;;4957763;28;19926;-83
2022/08/20 15:12:44;;;;;;;;;;;22.10;96.00;;;;;;4947228;28;19925;-83
2022/08/20 15:15:13;;;;;;;;;;;;;;;;;;4955902;28;19933;-84
2022/08/20 15:17:42;;;;;;;;;;;22.00;95.70;;;;;;4938517;28;19925;-84
2022/08/20 15:20:10;;;;;;;;;;;22.00;97.20;;;;;;4938065;28;19934;-84
2022/08/20 15:22:39;;;;;;;;;;;22.00;97.80;;;;;;4953093;28;20051;-84
2022/08/20 15:25:05;;;;;;;;;;;22.00;97.30;;;;;;4938575;28;19937;-81
2022/08/20 15:27:31;;;;;;;;;;;22.10;98.60;;;;;;4952829;28;19930;-83
2022/08/20 15:29:57;;;;;;;;;;;22.10;98.10;;;;;;4937583;28;20041;-82
2022/08/20 15:32:23;;;;;;;;;;;22.00;97.40;;;;;;4923486;28;19926;-85
2022/08/20 15:34:49;;;;;;;;;;;22.00;96.70;;;;;;4937758;28;19961;-82
2022/08/20 15:37:20;;;;;;;;;;;22.00;97.40;;;;;;4938620;28;19926;-83
2022/08/20 15:40:15;;;;;;;;;;;22.00;98.20;;;;;;4912436;29;20816;-86
2022/08/20 15:42:41;;;;;;;;;;;21.90;98.00;;;;;;4966000;28;19988;-84
2022/08/20 15:45:08;;;;;;;;;;;22.00;98.20;;;;;;4930980;29;19937;-85
2022/08/20 15:50:49;;;;;;;;;;;22.10;98.40;;;;;;4999985;28;20411;-88
2022/08/20 15:53:33;;;;;;;;;;;22.00;96.70;;;;;;4964221;28;19926;-83
2022/08/20 15:56:20;;;;;;;;;;;22.00;96.70;;;;;;4972955;28;19937;-84
2022/08/20 15:59:05;;;;;;;;;;;21.90;96.80;;;;;;4957771;28;19930;-82
2022/08/20 16:01:40;;;;;;;;;;;21.80;96.70;;;;;;4977244;28;19952;-83
2022/08/20 16:04:24;;;;;;;;;;;21.70;97.70;;;;;;4974009;28;19930;-80
2022/08/20 16:06:52;;;;;;;;;;;21.60;96.80;;;;;;4968709;28;19937;-82
2022/08/20 16:09:27;;;;;;;;;;;21.60;98.10;;;;;;4974326;23;20393;-84
2022/08/20 16:11:53;;;;;;;;;;;21.60;98.70;;;;;;4914935;29;20362;-84
2022/08/20 16:14:21;;;;;;;;;;;21.50;98.90;;;;;;4913701;29;20050;-83
2022/08/20 16:17:00;;;;;;;;;;;21.50;99.20;;;;;;4910713;29;19994;-83
2022/08/20 16:19:45;;;;;;;;;;;21.50;99.60;;;;;;4897034;29;19950;-83
2022/08/20 16:22:12;;;;;;;;;;;21.60;98.70;;;;;;4915605;29;19938;-81
2022/08/20 16:24:38;;;;;;;;;;;21.60;98.40;;;;;;4917465;29;19926;-82
2022/08/20 16:27:13;;;;;;;;;;;21.60;99.20;;;;;;4915221;29;19931;-82
2022/08/20 16:29:46;;;;;;;;;;;21.60;98.60;;;;;;4913193;29;19927;-84
2022/08/20 16:32:24;;;;;;;;;;;21.60;99.00;;;;;;4929661;29;20294;-82
2022/08/20 16:34:55;;;;;;;;;;;21.60;99.30;;;;;;4913378;29;19931;-82
2022/08/20 16:37:33;;;;;;;;;;;21.70;99.90;;;;;;4898217;29;20133;-82
2022/08/20 16:40:03;;;;;;;;;;;21.50;99.90;;;;;;4900396;29;19974;-82
2022/08/20 16:42:34;;;;;;;;;;;21.40;99.90;;;;;;4906038;29;19939;-82
2022/08/20 16:45:00;;;;;;;;;;;;;;;;;;4915988;29;19927;-84
2022/08/20 16:47:30;;;;;;;;;;;21.30;99.90;;;;;;4915962;29;20389;-85
2022/08/20 16:49:59;;;;;;;;;;;21.20;99.90;;;;;;4919753;29;20593;-82
2022/08/20 16:52:25;;;;;;;;;;;21.20;99.90;;;;;;4918323;29;19933;-84
2022/08/20 16:54:51;;;;;;;;;;;21.20;99.90;;;;;;4899762;29;19985;-79
2022/08/20 16:57:18;;;;;;;;;;;21.30;99.90;;;;;;4916564;29;19974;-85
2022/08/20 17:00:37;;;;;;;;;;;21.30;99.90;;;;;;4902006;29;20532;-83
2022/08/20 17:03:00;;;;;;;;;;;21.40;99.90;;;;;;4916622;29;20472;-81
2022/08/20 17:05:27;;;;;;;;;;;21.40;99.90;;;;;;4917145;29;19986;-87
2022/08/20 17:08:00;;;;;;;;;;;21.40;99.90;;;;;;5206030;23;19930;-84
2022/08/20 17:10:28;;;;;;;;;;;21.40;99.90;;;;;;4953287;28;20080;-81
2022/08/20 17:12:55;;;;;;;;;;;21.30;99.90;;;;;;4950820;28;19934;-83
2022/08/20 17:15:29;;;;;;;;;;;21.40;99.90;;;;;;4965958;28;19937;-83
2022/08/20 17:18:01;;;;;;;;;;;21.40;99.90;;;;;;4940373;28;20449;-82
2022/08/20 17:20:43;;;;;;;;;;;21.40;99.90;;;;;;4924783;28;20240;-84
2022/08/20 17:23:16;;;;;;;;;;;21.40;99.90;;;;;;4957166;28;20060;-91
2022/08/20 17:25:52;;;;;;;;;;;21.60;99.90;;;;;;4946604;28;19952;-91
2022/08/20 17:28:19;;;;;;;;;;;21.30;99.90;;;;;;4949927;28;19932;-89
2022/08/20 17:30:47;;;;;;;;;;;21.20;99.90;;;;;;4943037;28;19941;-93
2022/08/20 17:33:19;;;;;;;;;;;21.00;99.90;;;;;;4947663;28;19954;-89
2022/08/20 17:35:51;;;;;;;;;;;20.90;99.90;;;;;;4961248;28;20024;-91
2022/08/20 17:38:23;;;;;;;;;;;20.80;99.90;;;;;;4942999;28;20016;-91
2022/08/20 17:40:49;;;;;;;;;;;20.70;99.90;;;;;;4954911;28;19934;-88
2022/08/20 17:43:33;;;;;;;;;;;20.70;99.90;;;;;;4941611;28;19948;-92
2022/08/20 17:46:18;;;;;;;;;;;20.60;99.90;;;;;;4943279;28;19975;-92
2022/08/20 17:48:46;;;;;;;;;;;20.60;99.90;;;;;;4962337;28;19969;-93
2022/08/20 17:51:31;;;;;;;;;;;20.70;99.90;;;;;;4949035;28;19945;-84
2022/08/20 17:54:16;;;;;;;;;;;20.70;99.90;;;;;;4958158;28;19937;-84
2022/08/20 17:57:00;;;;;;;;;;;20.70;99.90;;;;;;4946813;28;19926;-89
2022/08/20 17:59:46;;;;;;;;;;;20.60;99.90;;;;;;4962126;28;20760;-93
2022/08/20 18:02:13;;;;;;;;;;;20.60;99.90;;;;;;4958073;28;19969;-86
2022/08/20 18:04:41;;;;;;;;;;;20.60;99.90;;;;;;4941087;28;19977;-86
2022/08/20 18:07:13;;;;;;;;;;;20.60;99.90;;;;;;4945283;28;19930;-86
2022/08/20 18:09:52;;;;;;;;;;;20.60;99.90;;;;;;4960458;28;19930;-85
2022/08/20 18:12:31;;;;;;;;;;;20.50;99.90;;;;;;4962948;28;19926;-89
2022/08/20 18:15:20;;;;;;;;;;;20.50;99.90;;;;;;4957393;28;19930;-87
2022/08/20 18:17:55;;;;;;;;;;;20.50;99.90;;;;;;4973642;28;19934;-87
2022/08/20 18:20:40;;;;;;;;;;;20.40;99.90;;;;;;4944083;28;19931;-86
2022/08/20 18:23:36;;;;;;;;;;;20.40;99.90;;;;;;4943839;28;19925;-85
2022/08/20 18:26:06;;;;;;;;;;;20.30;99.90;;;;;;4930616;28;19926;-85
2022/08/20 18:28:38;;;;;;;;;;;20.30;99.90;;;;;;4945505;28;19995;-85
2022/08/20 18:31:07;;;;;;;;;;;20.30;99.90;;;;;;4953029;28;19929;-80
2022/08/20 18:33:36;;;;;;;;;;;20.20;99.90;;;;;;4939555;28;19926;-84
2022/08/20 18:36:07;;;;;;;;;;;20.10;99.90;;;;;;4954108;28;20292;-80
2022/08/20 18:38:36;;;;;;;;;;;20.10;99.90;;;;;;4952011;28;19930;-80
2022/08/20 18:41:28;;;;;;;;;;;20.00;99.90;;;;;;4936009;28;20427;-87
2022/08/20 18:44:02;;;;;;;;;;;20.00;99.90;;;;;;4943649;28;19930;-90
2022/08/20 18:46:47;;;;;;;;;;;19.90;99.90;;;;;;4961072;28;20035;-91
2022/08/20 18:49:25;;;;;;;;;;;19.80;99.90;;;;;;4951382;28;20455;-92
2022/08/20 18:51:51;;;;;;;;;;;19.80;99.90;;;;;;4956322;28;20016;-88
2022/08/20 18:54:24;;;;;;;;;;;19.80;99.90;;;;;;4960618;28;19966;-88
2022/08/20 18:57:01;;;;;;;;;;;19.70;99.90;;;;;;4937249;28;20388;-87
2022/08/20 18:59:30;;;;;;;;;;;19.70;99.90;;;;;;4944973;28;19977;-89
2022/08/20 19:02:14;;;;;;;;;;;19.60;99.90;;;;;;4928773;28;19934;-89